createdAt,value
2023-01-31T00:01:25.671Z,6.50
2023-01-31T00:03:58.188Z,9.40
2023-01-31T00:06:26.073Z,10.02
2023-01-31T00:08:53.310Z,9.30
2023-01-31T00:11:21.626Z,10.45
2023-01-31T00:13:48.664Z,7.03
2023-01-31T00:16:16.351Z,11.00
2023-01-31T00:18:43.790Z,6.78
2023-01-31T00:21:26.164Z,7.45
2023-01-31T00:23:53.934Z,6.47
2023-01-31T00:26:29.932Z,7.75
2023-01-31T00:28:58.078Z,7.60
2023-01-31T00:31:26.533Z,9.07
2023-01-31T00:33:54.595Z,7.28
2023-01-31T00:36:26.590Z,10.93
2023-01-31T00:38:54.876Z,7.22
2023-01-31T00:41:22.628Z,10.98
2023-01-31T00:43:50.146Z,7.78
2023-01-31T00:46:17.309Z,9.68
2023-01-31T00:48:44.127Z,11.00
2023-01-31T00:51:11.009Z,12.73
2023-01-31T00:53:38.404Z,11.75
2023-01-31T00:56:08.085Z,8.23
2023-01-31T00:58:35.068Z,9.05
2023-01-31T01:01:10.239Z,7.50
2023-01-31T01:03:37.638Z,5.45
2023-01-31T01:06:04.886Z,7.78
2023-01-31T01:08:31.632Z,8.40
2023-01-31T01:11:08.060Z,6.97
2023-01-31T01:13:35.101Z,10.23
2023-01-31T01:16:09.075Z,5.97
2023-01-31T01:18:36.338Z,7.95
2023-01-31T01:21:14.162Z,11.55
2023-01-31T01:23:41.230Z,10.88
2023-01-31T01:26:24.560Z,11.88
2023-01-31T01:31:19.011Z,9.85
2023-01-31T01:33:46.359Z,10.25
2023-01-31T01:36:16.229Z,9.23
2023-01-31T01:38:43.685Z,11.60
2023-01-31T01:41:11.259Z,8.75
2023-01-31T01:43:41.105Z,9.88
2023-01-31T01:46:09.282Z,10.48
2023-01-31T01:48:36.305Z,8.20
2023-01-31T01:51:03.961Z,10.40
2023-01-31T01:53:31.007Z,13.68
2023-01-31T01:55:59.404Z,9.25
2023-01-31T01:58:30.133Z,9.40
2023-01-31T02:00:56.861Z,9.95
2023-01-31T02:03:23.566Z,5.97
2023-01-31T02:05:55.878Z,9.20
2023-01-31T02:08:24.019Z,11.25
2023-01-31T02:11:13.674Z,8.88
2023-01-31T02:13:41.154Z,12.45
2023-01-31T02:16:08.128Z,13.50
2023-01-31T02:18:35.160Z,10.93
2023-01-31T02:21:21.177Z,9.85
2023-01-31T02:24:13.009Z,9.43
2023-01-31T02:26:54.616Z,11.07
2023-01-31T02:29:33.371Z,11.18
2023-01-31T02:32:30.836Z,9.00
2023-01-31T02:35:19.419Z,10.10
2023-01-31T02:38:24.330Z,9.60
2023-01-31T02:40:59.095Z,8.40
2023-01-31T02:44:00.187Z,12.55
2023-01-31T02:47:00.749Z,14.55
2023-01-31T02:49:43.691Z,15.43
2023-01-31T02:52:29.037Z,8.82
2023-01-31T02:55:25.740Z,9.73
2023-01-31T02:57:53.384Z,11.85
2023-01-31T03:00:20.700Z,12.10
2023-01-31T03:02:47.498Z,13.18
2023-01-31T03:05:16.176Z,10.05
2023-01-31T03:07:44.108Z,11.50
2023-01-31T03:10:26.185Z,12.88
2023-01-31T03:13:06.741Z,10.68
2023-01-31T03:16:00.206Z,11.32
2023-01-31T03:18:29.124Z,15.82
2023-01-31T03:21:07.782Z,13.45
2023-01-31T03:23:36.201Z,8.77
2023-01-31T03:26:04.760Z,13.82
2023-01-31T03:28:33.130Z,14.15
2023-01-31T03:31:17.506Z,11.95
2023-01-31T03:33:56.077Z,9.63
2023-01-31T03:36:52.052Z,11.98
2023-01-31T03:39:49.524Z,13.38
2023-01-31T03:42:40.884Z,11.63
2023-01-31T03:45:30.683Z,9.38
2023-01-31T03:47:57.388Z,16.52
2023-01-31T03:50:29.922Z,8.20
2023-01-31T03:53:02.600Z,9.38
2023-01-31T03:55:43.134Z,9.95
2023-01-31T03:58:10.995Z,9.80
2023-01-31T04:00:37.803Z,9.10
2023-01-31T04:03:12.766Z,11.43
2023-01-31T04:05:40.975Z,8.18
2023-01-31T04:08:07.712Z,10.80
2023-01-31T04:10:34.457Z,10.63
2023-01-31T04:13:01.688Z,14.05
2023-01-31T04:15:28.575Z,10.38
2023-01-31T04:17:55.350Z,11.98
2023-01-31T04:20:22.208Z,10.80
2023-01-31T04:22:48.922Z,13.02
2023-01-31T04:25:15.692Z,10.43
2023-01-31T04:27:42.409Z,15.27
2023-01-31T04:30:09.750Z,11.68
2023-01-31T04:32:36.713Z,13.15
2023-01-31T04:35:03.561Z,10.98
2023-01-31T04:37:30.331Z,11.63
2023-01-31T04:39:57.057Z,11.75
2023-01-31T04:42:23.747Z,10.15
2023-01-31T04:44:50.466Z,9.27
2023-01-31T04:47:17.408Z,12.70
2023-01-31T04:49:44.386Z,11.45
2023-01-31T04:52:11.506Z,10.07
2023-01-31T04:54:38.298Z,10.93
2023-01-31T04:57:04.985Z,13.48
2023-01-31T04:59:31.670Z,10.63
2023-01-31T05:01:58.540Z,13.27
2023-01-31T05:04:26.455Z,15.07
2023-01-31T05:06:53.216Z,15.85
2023-01-31T05:09:20.514Z,12.63
2023-01-31T05:11:47.482Z,11.73
2023-01-31T05:14:15.098Z,12.52
2023-01-31T05:16:44.244Z,9.10
2023-01-31T05:19:10.974Z,11.05
2023-01-31T05:21:55.029Z,13.27
2023-01-31T05:24:26.738Z,13.10
2023-01-31T05:26:58.456Z,10.80
2023-01-31T05:29:27.038Z,10.25
2023-01-31T05:31:58.674Z,10.00
2023-01-31T05:34:26.575Z,11.57
2023-01-31T05:36:53.311Z,9.68
2023-01-31T05:39:20.193Z,10.43
2023-01-31T05:41:46.916Z,11.65
2023-01-31T05:44:14.544Z,12.48
2023-01-31T05:46:41.231Z,12.40
2023-01-31T05:49:08.230Z,9.40
2023-01-31T05:51:34.941Z,14.05
2023-01-31T05:54:01.673Z,13.73
2023-01-31T05:56:28.405Z,9.05
2023-01-31T05:58:55.201Z,13.70
2023-01-31T06:01:24.864Z,10.20
2023-01-31T06:03:51.802Z,13.98
2023-01-31T06:06:18.751Z,13.13
2023-01-31T06:08:45.636Z,13.55
2023-01-31T06:11:13.039Z,11.82
2023-01-31T06:13:40.999Z,9.90
2023-01-31T06:16:08.045Z,11.88
2023-01-31T06:18:35.022Z,15.20
2023-01-31T06:21:01.980Z,13.13
2023-01-31T06:23:28.721Z,11.75
2023-01-31T06:25:55.744Z,12.45
2023-01-31T06:28:23.004Z,12.80
2023-01-31T06:30:49.786Z,15.30
2023-01-31T06:33:16.740Z,11.50
2023-01-31T06:35:43.547Z,12.80
2023-01-31T06:38:12.609Z,11.40
2023-01-31T06:40:39.329Z,15.18
2023-01-31T06:43:06.045Z,13.73
2023-01-31T06:45:33.118Z,13.00
2023-01-31T06:48:00.204Z,15.25
2023-01-31T06:50:26.980Z,13.32
2023-01-31T06:52:54.363Z,14.70
2023-01-31T06:55:21.571Z,13.07
2023-01-31T06:57:49.469Z,11.82
2023-01-31T07:00:18.713Z,13.13
2023-01-31T07:02:46.590Z,13.52
2023-01-31T07:05:13.551Z,12.63
2023-01-31T07:07:40.364Z,13.02
2023-01-31T07:10:07.628Z,13.60
2023-01-31T07:12:34.361Z,13.70
2023-01-31T07:15:01.095Z,16.33
2023-01-31T07:17:27.923Z,14.27
2023-01-31T07:19:54.671Z,14.93
2023-01-31T07:22:21.425Z,14.70
2023-01-31T07:24:51.000Z,10.10
2023-01-31T07:27:18.237Z,10.18
2023-01-31T07:29:45.040Z,15.00
2023-01-31T07:32:11.931Z,10.73
2023-01-31T07:34:38.606Z,12.18
2023-01-31T07:37:05.320Z,13.07
2023-01-31T07:39:32.337Z,11.20
2023-01-31T07:41:59.095Z,13.25
2023-01-31T07:44:25.817Z,16.05
2023-01-31T07:46:54.865Z,12.85
2023-01-31T07:49:21.613Z,14.00
2023-01-31T07:51:48.367Z,7.47
2023-01-31T07:54:15.077Z,13.45
2023-01-31T07:56:41.879Z,14.93
2023-01-31T07:59:08.579Z,7.47
2023-01-31T08:01:53.858Z,8.85
2023-01-31T08:04:22.564Z,10.68
2023-01-31T08:06:50.053Z,16.90
2023-01-31T08:09:16.847Z,11.82
2023-01-31T08:11:44.088Z,13.88
2023-01-31T08:14:10.829Z,11.05
2023-01-31T08:16:38.535Z,11.38
2023-01-31T08:19:05.444Z,8.68
2023-01-31T08:21:32.969Z,9.98
2023-01-31T08:23:59.863Z,14.23
2023-01-31T08:26:26.745Z,17.83
2023-01-31T08:28:57.021Z,18.38
2023-01-31T08:31:25.644Z,18.45
2023-01-31T08:33:53.498Z,13.27
2023-01-31T08:36:21.300Z,12.02
2023-01-31T08:38:48.645Z,11.68
2023-01-31T08:41:16.944Z,16.17
2023-01-31T08:43:55.105Z,18.73
2023-01-31T08:46:30.926Z,15.65
2023-01-31T08:48:58.325Z,14.90
2023-01-31T08:51:25.254Z,12.43
2023-01-31T08:53:52.391Z,13.00
2023-01-31T08:56:21.691Z,12.73
2023-01-31T08:58:48.724Z,11.77
2023-01-31T09:01:17.679Z,16.55
2023-01-31T09:03:46.369Z,10.35
2023-01-31T09:06:18.699Z,12.10
2023-01-31T09:08:45.721Z,11.98
2023-01-31T09:11:17.550Z,11.00
2023-01-31T09:13:44.361Z,14.82
2023-01-31T09:16:12.346Z,11.38
2023-01-31T09:18:39.911Z,12.63
2023-01-31T09:21:10.910Z,13.18
2023-01-31T09:23:39.840Z,8.40
2023-01-31T09:26:08.728Z,5.78
2023-01-31T09:28:35.603Z,9.70
2023-01-31T09:31:07.394Z,8.57
2023-01-31T09:33:34.696Z,7.10
2023-01-31T09:36:03.997Z,9.35
2023-01-31T09:38:31.211Z,9.02
2023-01-31T09:40:58.945Z,8.90
2023-01-31T09:43:29.800Z,9.57
2023-01-31T09:45:58.384Z,10.85
2023-01-31T09:48:29.506Z,11.23
2023-01-31T09:50:56.984Z,7.20
2023-01-31T09:53:25.437Z,11.70
2023-01-31T09:56:15.552Z,9.55
2023-01-31T09:59:20.082Z,6.70
2023-01-31T10:02:00.846Z,9.93
2023-01-31T10:04:38.077Z,10.27
2023-01-31T10:07:16.446Z,9.40
2023-01-31T10:09:52.667Z,12.52
2023-01-31T10:12:22.561Z,9.18
2023-01-31T10:15:15.007Z,12.57
2023-01-31T10:17:45.604Z,10.35
2023-01-31T10:20:37.387Z,7.72
2023-01-31T10:23:13.250Z,12.63
2023-01-31T10:25:51.387Z,13.32
2023-01-31T10:28:29.052Z,13.75
2023-01-31T10:31:22.984Z,7.80
2023-01-31T10:33:57.711Z,8.90
2023-01-31T10:36:38.495Z,7.65
2023-01-31T10:39:24.186Z,8.23
2023-01-31T10:42:03.298Z,5.97
2023-01-31T10:44:43.594Z,14.82
2023-01-31T10:47:15.273Z,6.28
2023-01-31T10:49:49.842Z,5.88
2023-01-31T10:52:31.745Z,7.35
2023-01-31T10:55:13.664Z,8.77
2023-01-31T10:57:40.745Z,8.50
2023-01-31T11:00:11.691Z,6.20
2023-01-31T11:02:38.405Z,6.80
2023-01-31T11:05:05.475Z,7.30
2023-01-31T11:07:32.282Z,9.23
2023-01-31T11:09:59.120Z,9.05
2023-01-31T11:12:43.716Z,5.40
2023-01-31T11:15:18.123Z,6.80
2023-01-31T11:17:45.746Z,10.82
2023-01-31T11:20:29.468Z,7.38
2023-01-31T11:22:57.111Z,8.55
2023-01-31T11:25:24.990Z,5.80
2023-01-31T11:27:58.107Z,10.02
2023-01-31T11:32:55.759Z,7.07
2023-01-31T11:35:25.607Z,7.78
2023-01-31T11:37:54.180Z,9.38
2023-01-31T11:40:39.712Z,8.85
2023-01-31T11:43:21.771Z,6.45
2023-01-31T11:46:00.179Z,11.98
2023-01-31T11:48:47.442Z,10.85
2023-01-31T11:51:27.265Z,12.55
2023-01-31T11:53:54.057Z,16.48
2023-01-31T11:56:26.284Z,13.90
2023-01-31T11:59:04.249Z,6.23
2023-01-31T12:01:30.969Z,9.90
2023-01-31T12:04:05.069Z,10.63
2023-01-31T12:06:37.758Z,6.25
2023-01-31T12:09:23.971Z,12.18
2023-01-31T12:12:23.299Z,11.38
2023-01-31T12:14:50.248Z,11.95
2023-01-31T12:17:18.257Z,13.10
2023-01-31T12:20:25.217Z,9.35
2023-01-31T12:22:59.560Z,10.75
2023-01-31T12:25:40.853Z,6.97
2023-01-31T12:28:43.716Z,7.53
2023-01-31T12:31:19.584Z,12.43
2023-01-31T12:34:08.791Z,6.32
2023-01-31T12:36:56.422Z,8.38
2023-01-31T12:39:41.775Z,12.70
2023-01-31T12:42:32.223Z,10.20
2023-01-31T12:45:06.803Z,11.63
2023-01-31T12:47:39.745Z,7.25
2023-01-31T12:50:33.195Z,7.35
2023-01-31T12:53:25.327Z,4.13
2023-01-31T12:56:23.228Z,8.82
2023-01-31T12:59:14.965Z,6.35
2023-01-31T13:02:00.222Z,7.40
2023-01-31T13:04:49.492Z,8.50
2023-01-31T13:07:40.896Z,10.00
2023-01-31T13:10:15.138Z,27.90
2023-01-31T13:12:41.960Z,9.68
2023-01-31T13:15:20.011Z,13.77
2023-01-31T13:17:46.890Z,19.98
2023-01-31T13:20:22.678Z,17.08
2023-01-31T13:22:53.795Z,12.27
2023-01-31T13:25:33.671Z,6.03
2023-01-31T13:28:05.603Z,7.70
2023-01-31T13:30:43.101Z,7.88
2023-01-31T13:33:25.475Z,6.05
2023-01-31T13:36:07.679Z,9.30
2023-01-31T13:38:37.853Z,9.13
2023-01-31T13:41:05.093Z,9.85
2023-01-31T13:43:31.843Z,9.68
2023-01-31T13:46:01.408Z,11.30
2023-01-31T13:48:30.143Z,8.90
2023-01-31T13:51:03.902Z,10.43
2023-01-31T13:53:34.318Z,6.40
2023-01-31T13:56:01.489Z,6.05
2023-01-31T13:58:34.324Z,5.35
2023-01-31T14:01:19.486Z,4.70
2023-01-31T14:04:11.235Z,6.65
2023-01-31T14:06:55.994Z,9.18
2023-01-31T14:09:36.528Z,9.00
2023-01-31T14:12:18.316Z,7.20
2023-01-31T14:14:46.254Z,7.10
2023-01-31T14:17:22.113Z,6.45
2023-01-31T14:19:51.943Z,4.63
2023-01-31T14:22:27.821Z,4.70
2023-01-31T14:25:00.202Z,5.63
2023-01-31T14:27:44.969Z,6.60
2023-01-31T14:30:26.940Z,5.53
2023-01-31T14:33:05.658Z,9.30
2023-01-31T14:35:59.326Z,7.50
2023-01-31T14:41:01.594Z,3.90
2023-01-31T14:43:37.768Z,6.95
2023-01-31T14:46:07.621Z,4.20
2023-01-31T14:48:58.711Z,6.05
2023-01-31T14:51:43.573Z,4.10
2023-01-31T14:54:47.757Z,7.80
2023-01-31T14:57:18.830Z,4.90
2023-01-31T15:00:04.731Z,5.85
2023-01-31T15:02:31.748Z,6.57
2023-01-31T15:05:06.351Z,4.78
2023-01-31T15:07:33.277Z,5.60
2023-01-31T15:10:00.068Z,7.72
2023-01-31T15:12:52.717Z,7.00
2023-01-31T15:15:38.825Z,7.82
2023-01-31T15:18:14.269Z,6.72
2023-01-31T15:20:44.133Z,8.35
2023-01-31T15:23:15.691Z,5.60
2023-01-31T15:25:45.899Z,5.18
2023-01-31T15:28:14.809Z,5.60
2023-01-31T15:30:41.740Z,5.93
2023-01-31T15:33:38.435Z,7.65
2023-01-31T15:36:09.410Z,18.63
2023-01-31T15:38:42.000Z,12.77
2023-01-31T15:41:25.428Z,25.63
2023-01-31T15:46:25.032Z,20.38
2023-01-31T15:48:51.936Z,55.00
2023-01-31T15:51:19.298Z,12.52
2023-01-31T15:53:46.610Z,5.40
2023-01-31T15:56:23.594Z,4.88
2023-01-31T15:58:52.452Z,6.57
2023-01-31T16:01:19.371Z,5.88
2023-01-31T16:03:57.410Z,4.78
2023-01-31T16:06:42.273Z,4.18
2023-01-31T16:09:24.124Z,7.55
2023-01-31T16:11:50.850Z,5.80
2023-01-31T16:14:17.609Z,3.88
2023-01-31T16:16:44.356Z,8.15
2023-01-31T16:19:14.585Z,4.55
2023-01-31T16:21:43.089Z,5.53
2023-01-31T16:24:20.075Z,4.95
2023-01-31T16:27:08.069Z,9.63
2023-01-31T16:29:40.733Z,8.57
2023-01-31T16:32:19.398Z,6.68
2023-01-31T16:34:46.204Z,7.80
2023-01-31T16:37:12.946Z,6.95
2023-01-31T16:39:44.959Z,5.25
2023-01-31T16:42:18.644Z,5.63
2023-01-31T16:44:46.099Z,9.00
2023-01-31T16:47:50.965Z,5.07
2023-01-31T16:50:17.780Z,8.20
2023-01-31T16:52:45.070Z,4.30
2023-01-31T16:55:25.276Z,6.20
2023-01-31T16:57:52.129Z,5.25
2023-01-31T17:00:25.215Z,4.90
2023-01-31T17:05:21.595Z,4.60
2023-01-31T17:07:51.302Z,4.60
2023-01-31T17:10:29.309Z,5.65
2023-01-31T17:13:03.745Z,6.13
2023-01-31T17:15:30.487Z,6.45
2023-01-31T17:17:57.346Z,6.80
2023-01-31T17:20:24.205Z,4.32
2023-01-31T17:23:00.757Z,4.85
2023-01-31T17:25:34.927Z,10.68
2023-01-31T17:28:01.857Z,3.70
2023-01-31T17:30:30.615Z,5.80
2023-01-31T17:33:00.651Z,7.80
2023-01-31T17:35:30.054Z,5.63
2023-01-31T17:37:57.012Z,4.38
2023-01-31T17:40:23.962Z,8.43
2023-01-31T17:42:57.738Z,8.35
2023-01-31T17:45:25.133Z,6.43
2023-01-31T17:47:54.877Z,5.55
2023-01-31T17:50:24.660Z,6.78
2023-01-31T17:52:51.995Z,7.57
2023-01-31T17:55:20.167Z,7.70
2023-01-31T17:57:47.237Z,5.28
2023-01-31T18:00:15.568Z,7.95
2023-01-31T18:02:42.878Z,8.10
2023-01-31T18:05:13.008Z,6.43
2023-01-31T18:07:40.152Z,5.45
2023-01-31T18:10:07.866Z,5.40
2023-01-31T18:12:36.413Z,5.28
2023-01-31T18:15:03.861Z,6.60
2023-01-31T18:17:31.291Z,6.55
2023-01-31T18:19:58.323Z,4.57
2023-01-31T18:22:25.953Z,5.72
2023-01-31T18:24:53.172Z,4.60
2023-01-31T18:27:21.615Z,4.75
2023-01-31T18:29:48.346Z,9.30
2023-01-31T18:32:15.102Z,7.45
2023-01-31T18:34:42.188Z,6.40
2023-01-31T18:37:17.540Z,4.40
2023-01-31T18:39:44.483Z,5.72
2023-01-31T18:42:11.365Z,4.90
2023-01-31T18:44:40.686Z,4.45
2023-01-31T18:47:07.580Z,5.65
2023-01-31T18:49:34.458Z,6.35
2023-01-31T18:52:01.282Z,5.50
2023-01-31T18:54:28.089Z,5.90
2023-01-31T18:56:54.921Z,11.10
2023-01-31T18:59:21.740Z,3.95
2023-01-31T19:01:48.504Z,6.32
2023-01-31T19:04:15.313Z,4.82
2023-01-31T19:06:42.457Z,3.45
2023-01-31T19:09:09.568Z,4.10
2023-01-31T19:11:36.535Z,7.22
2023-01-31T19:14:07.191Z,4.55
2023-01-31T19:16:40.294Z,5.93
2023-01-31T19:21:35.064Z,7.97
2023-01-31T19:24:04.438Z,7.40
2023-01-31T19:26:32.588Z,6.43
2023-01-31T19:28:59.699Z,6.65
2023-01-31T19:31:31.625Z,6.25
2023-01-31T19:34:00.893Z,6.07
2023-01-31T19:36:32.958Z,5.07
2023-01-31T19:39:00.825Z,6.88
2023-01-31T19:41:28.332Z,5.40
2023-01-31T19:43:56.842Z,5.88
2023-01-31T19:46:25.127Z,5.65
2023-01-31T19:48:51.990Z,6.10
2023-01-31T19:51:20.546Z,5.60
2023-01-31T19:53:48.543Z,5.40
2023-01-31T19:56:15.715Z,4.13
2023-01-31T19:58:42.885Z,4.38
2023-01-31T20:01:12.025Z,6.13
2023-01-31T20:03:39.341Z,6.22
2023-01-31T20:06:10.393Z,10.15
2023-01-31T20:08:37.456Z,4.50
2023-01-31T20:11:06.136Z,3.97
2023-01-31T20:13:32.863Z,5.78
2023-01-31T20:16:00.789Z,4.28
2023-01-31T20:18:28.300Z,5.18
2023-01-31T20:20:55.202Z,4.68
2023-01-31T20:23:21.976Z,5.65
2023-01-31T20:25:52.939Z,7.40
2023-01-31T20:28:20.337Z,4.88
2023-01-31T20:30:47.495Z,5.18
2023-01-31T20:33:14.829Z,8.48
2023-01-31T20:35:41.645Z,7.03
2023-01-31T20:38:09.749Z,10.13
2023-01-31T20:40:36.703Z,7.00
2023-01-31T20:43:03.553Z,4.65
2023-01-31T20:45:30.414Z,6.57
2023-01-31T20:47:57.739Z,6.47
2023-01-31T20:50:24.911Z,4.70
2023-01-31T20:52:53.880Z,3.75
2023-01-31T20:55:20.775Z,5.28
2023-01-31T20:57:50.315Z,4.60
2023-01-31T21:00:18.370Z,5.00
2023-01-31T21:02:45.348Z,4.25
2023-01-31T21:05:12.545Z,6.25
2023-01-31T21:07:39.668Z,4.07
2023-01-31T21:10:07.434Z,3.58
2023-01-31T21:12:34.197Z,3.10
2023-01-31T21:15:00.984Z,2.90
2023-01-31T21:17:39.144Z,4.13
2023-01-31T21:20:07.938Z,4.97
2023-01-31T21:22:34.968Z,4.97
2023-01-31T21:25:09.135Z,3.72
2023-01-31T21:27:35.875Z,5.78
2023-01-31T21:30:02.853Z,2.72
2023-01-31T21:32:30.002Z,3.63
2023-01-31T21:34:57.082Z,3.72
2023-01-31T21:37:23.834Z,3.95
2023-01-31T21:39:51.072Z,5.32
2023-01-31T21:42:19.907Z,3.60
2023-01-31T21:44:48.013Z,4.93
2023-01-31T21:47:15.524Z,3.47
2023-01-31T21:49:43.415Z,2.25
2023-01-31T21:52:13.372Z,2.35
2023-01-31T21:54:40.214Z,3.67
2023-01-31T21:57:07.979Z,4.32
2023-01-31T21:59:36.536Z,3.38
2023-01-31T22:02:03.379Z,4.97
2023-01-31T22:04:30.645Z,2.65
2023-01-31T22:06:57.441Z,4.15
2023-01-31T22:09:24.310Z,3.20
2023-01-31T22:11:53.025Z,3.45
2023-01-31T22:14:19.732Z,3.58
2023-01-31T22:16:46.899Z,5.18
2023-01-31T22:19:14.164Z,2.80
2023-01-31T22:21:41.824Z,3.53
2023-01-31T22:24:09.630Z,5.07
2023-01-31T22:26:39.029Z,4.38
2023-01-31T22:29:08.847Z,6.47
2023-01-31T22:31:36.032Z,4.65
2023-01-31T22:34:04.641Z,4.07
2023-01-31T22:36:31.947Z,5.53
2023-01-31T22:38:58.727Z,4.93
2023-01-31T22:41:25.515Z,5.47
2023-01-31T22:43:53.071Z,5.00
2023-01-31T22:46:22.084Z,3.75
2023-01-31T22:48:49.676Z,3.92
2023-01-31T22:51:18.787Z,2.75
2023-01-31T22:53:45.509Z,3.60
2023-01-31T22:56:17.224Z,5.57
2023-01-31T22:58:44.183Z,3.78
2023-01-31T23:01:18.263Z,4.53
2023-01-31T23:03:45.262Z,2.88
2023-01-31T23:06:12.909Z,3.97
2023-01-31T23:08:40.162Z,5.07
2023-01-31T23:11:11.350Z,3.92
2023-01-31T23:13:38.844Z,4.45
2023-01-31T23:16:06.741Z,5.03
2023-01-31T23:18:34.367Z,4.53
2023-01-31T23:21:08.924Z,4.57
2023-01-31T23:23:35.810Z,4.22
2023-01-31T23:26:02.852Z,7.00
2023-01-31T23:28:29.873Z,5.90
2023-01-31T23:30:56.687Z,3.63
2023-01-31T23:33:23.468Z,3.53
2023-01-31T23:35:50.809Z,5.03
2023-01-31T23:38:17.782Z,4.30
2023-01-31T23:40:44.475Z,7.82
2023-01-31T23:43:11.240Z,3.92
2023-01-31T23:45:37.990Z,6.40
2023-01-31T23:48:04.930Z,3.55
2023-01-31T23:50:31.816Z,4.32
2023-01-31T23:52:58.583Z,4.55
2023-01-31T23:55:25.272Z,3.55
2023-01-31T23:57:52.081Z,5.00
